createdAt,value
2022-10-01T00:02:00.987Z,9.03
2022-10-01T00:04:28.822Z,9.00
2022-10-01T00:06:59.202Z,8.99
2022-10-01T00:09:27.298Z,9.01
2022-10-01T00:11:54.981Z,8.88
2022-10-01T00:14:22.774Z,8.78
2022-10-01T00:16:52.019Z,8.62
2022-10-01T00:19:19.675Z,8.68
2022-10-01T00:21:47.341Z,8.79
2022-10-01T00:24:15.144Z,8.71
2022-10-01T00:26:45.423Z,8.67
2022-10-01T00:29:15.447Z,8.55
2022-10-01T00:31:43.663Z,8.75
2022-10-01T00:35:05.653Z,8.57
2022-10-01T00:37:35.170Z,8.60
2022-10-01T00:40:03.180Z,8.60
2022-10-01T00:42:30.976Z,8.50
2022-10-01T00:44:58.934Z,8.35
2022-10-01T00:47:32.527Z,8.26
2022-10-01T00:50:07.367Z,8.29
2022-10-01T00:52:39.224Z,8.26
2022-10-01T00:55:12.846Z,8.23
2022-10-01T00:57:42.057Z,8.21
2022-10-01T01:00:12.214Z,8.09
2022-10-01T01:02:40.765Z,8.20
2022-10-01T01:05:13.647Z,8.25
2022-10-01T01:07:45.391Z,8.32
2022-10-01T01:10:15.138Z,8.25
2022-10-01T01:12:56.129Z,8.27
2022-10-01T01:15:31.692Z,8.14
2022-10-01T01:18:09.293Z,8.20
2022-10-01T01:21:00.244Z,8.18
2022-10-01T01:23:55.253Z,8.15
2022-10-01T01:26:33.911Z,8.12
2022-10-01T01:29:08.448Z,8.19
2022-10-01T01:31:41.329Z,8.21
2022-10-01T01:34:12.947Z,8.27
2022-10-01T01:36:46.120Z,8.23
2022-10-01T01:39:18.048Z,8.23
2022-10-01T01:41:50.975Z,8.21
2022-10-01T01:44:25.646Z,8.17
2022-10-01T01:46:56.818Z,8.22
2022-10-01T01:49:25.492Z,8.18
2022-10-01T01:51:58.037Z,8.31
2022-10-01T01:54:30.302Z,8.45
2022-10-01T01:56:59.467Z,8.49
2022-10-01T01:59:29.363Z,8.50
2022-10-01T02:01:58.905Z,8.31
2022-10-01T02:04:31.575Z,8.35
2022-10-01T02:07:29.058Z,8.28
2022-10-01T02:10:10.047Z,8.16
2022-10-01T02:12:49.954Z,8.15
2022-10-01T02:15:27.506Z,8.13
2022-10-01T02:18:00.528Z,8.10
2022-10-01T02:20:32.154Z,8.15
2022-10-01T02:23:03.622Z,8.23
2022-10-01T02:25:38.635Z,8.27
2022-10-01T02:28:10.307Z,8.35
2022-10-01T02:30:41.946Z,8.40
2022-10-01T02:33:12.498Z,8.34
2022-10-01T02:35:42.521Z,8.37
2022-10-01T02:38:11.515Z,8.38
2022-10-01T02:40:43.268Z,8.37
2022-10-01T02:43:16.490Z,8.33
2022-10-01T02:45:48.291Z,8.38
2022-10-01T02:48:17.499Z,8.45
2022-10-01T02:50:51.055Z,8.37
2022-10-01T02:53:23.162Z,8.30
2022-10-01T02:55:51.701Z,8.28
2022-10-01T02:58:19.433Z,8.34
2022-10-01T03:00:48.484Z,8.40
2022-10-01T03:03:16.200Z,8.36
2022-10-01T03:05:44.025Z,8.48
2022-10-01T03:08:11.759Z,8.40
2022-10-01T03:10:42.446Z,8.44
2022-10-01T03:13:13.713Z,8.48
2022-10-01T03:15:41.478Z,8.44
2022-10-01T03:18:10.569Z,8.43
2022-10-01T03:20:38.267Z,8.50
2022-10-01T03:23:05.931Z,8.43
2022-10-01T03:25:33.616Z,8.35
2022-10-01T03:28:01.427Z,8.37
2022-10-01T03:30:30.287Z,8.40
2022-10-01T03:32:57.967Z,8.41
2022-10-01T03:35:26.973Z,8.29
2022-10-01T03:37:54.707Z,8.30
2022-10-01T03:40:22.394Z,8.26
2022-10-01T03:42:51.055Z,8.27
2022-10-01T03:45:18.772Z,8.19
2022-10-01T03:47:52.750Z,8.15
2022-10-01T03:50:21.922Z,8.16
2022-10-01T03:52:51.287Z,8.17
2022-10-01T03:55:19.258Z,8.16
2022-10-01T03:57:47.237Z,8.14
2022-10-01T04:00:14.959Z,8.17
2022-10-01T04:02:42.769Z,8.18
2022-10-01T04:05:10.660Z,8.09
2022-10-01T04:07:38.372Z,8.07
2022-10-01T04:10:08.908Z,8.21
2022-10-01T04:12:36.602Z,8.11
2022-10-01T04:15:04.552Z,8.20
2022-10-01T04:17:32.258Z,8.23
2022-10-01T04:20:00.264Z,8.21
2022-10-01T04:22:27.963Z,8.24
2022-10-01T04:24:55.634Z,8.29
2022-10-01T04:27:25.935Z,8.31
2022-10-01T04:29:53.648Z,8.36
2022-10-01T04:32:21.527Z,8.45
2022-10-01T04:34:55.185Z,8.49
2022-10-01T04:37:23.777Z,8.52
2022-10-01T04:39:51.488Z,8.58
2022-10-01T04:42:19.211Z,8.59
2022-10-01T04:44:48.525Z,8.53
2022-10-01T04:47:16.247Z,8.55
2022-10-01T04:49:43.861Z,8.57
2022-10-01T04:52:11.582Z,8.57
2022-10-01T04:54:39.251Z,8.63
2022-10-01T04:57:07.014Z,8.66
2022-10-01T04:59:34.770Z,8.69
2022-10-01T05:02:03.951Z,8.67
2022-10-01T05:04:31.725Z,8.69
2022-10-01T05:06:59.462Z,8.61
2022-10-01T05:09:27.140Z,8.72
2022-10-01T05:11:54.826Z,8.77
2022-10-01T05:14:22.545Z,8.78
2022-10-01T05:16:50.287Z,8.85
2022-10-01T05:19:19.286Z,8.91
2022-10-01T05:21:46.980Z,8.96
2022-10-01T05:24:16.190Z,8.99
2022-10-01T05:26:43.900Z,9.06
2022-10-01T05:29:11.626Z,9.17
2022-10-01T05:31:44.374Z,9.07
2022-10-01T05:34:12.451Z,9.14
2022-10-01T05:36:41.874Z,9.18
2022-10-01T05:39:09.717Z,9.17
2022-10-01T05:41:37.813Z,9.17
2022-10-01T05:44:06.063Z,9.21
2022-10-01T05:46:33.899Z,9.15
2022-10-01T05:49:01.719Z,9.23
2022-10-01T05:51:30.184Z,9.25
2022-10-01T05:54:01.180Z,9.24
2022-10-01T05:56:28.918Z,9.24
2022-10-01T05:58:56.742Z,9.32
2022-10-01T06:01:24.460Z,9.29
2022-10-01T06:03:52.192Z,9.32
2022-10-01T06:06:23.536Z,9.28
2022-10-01T06:08:51.239Z,9.39
2022-10-01T06:11:22.531Z,9.44
2022-10-01T06:13:50.936Z,9.52
2022-10-01T06:16:18.669Z,9.63
2022-10-01T06:18:48.127Z,9.67
2022-10-01T06:21:15.858Z,9.69
2022-10-01T06:23:44.320Z,9.68
2022-10-01T06:26:12.109Z,9.75
2022-10-01T06:28:41.159Z,9.85
2022-10-01T06:31:08.843Z,9.88
2022-10-01T06:33:36.898Z,9.95
2022-10-01T06:36:05.507Z,9.99
2022-10-01T06:38:33.176Z,10.03
2022-10-01T06:41:03.786Z,10.12
2022-10-01T06:43:32.867Z,10.13
2022-10-01T06:46:04.015Z,10.35
2022-10-01T06:48:32.442Z,10.45
2022-10-01T06:51:00.409Z,10.50
2022-10-01T06:53:29.180Z,10.52
2022-10-01T06:55:56.935Z,10.58
2022-10-01T06:58:26.561Z,10.62
2022-10-01T07:01:00.232Z,10.60
2022-10-01T07:03:31.001Z,10.73
2022-10-01T07:06:03.582Z,10.83
2022-10-01T07:08:31.349Z,10.93
2022-10-01T07:11:03.588Z,10.97
2022-10-01T07:13:31.816Z,11.09
2022-10-01T07:15:59.583Z,11.15
2022-10-01T07:18:27.302Z,11.14
2022-10-01T07:20:57.752Z,11.09
2022-10-01T07:23:25.509Z,11.20
2022-10-01T07:25:53.260Z,11.10
2022-10-01T07:28:25.608Z,11.05
2022-10-01T07:30:59.924Z,11.07
2022-10-01T07:33:28.140Z,11.00
2022-10-01T07:35:57.194Z,10.98
2022-10-01T07:38:24.850Z,10.93
2022-10-01T07:40:54.581Z,10.79
2022-10-01T07:43:22.436Z,10.93
2022-10-01T07:45:52.448Z,10.97
2022-10-01T07:48:20.307Z,10.96
2022-10-01T07:50:48.094Z,11.07
2022-10-01T07:53:17.648Z,11.06
2022-10-01T07:55:45.769Z,11.04
2022-10-01T07:58:14.038Z,11.11
2022-10-01T08:00:43.334Z,11.07
2022-10-01T08:03:12.667Z,11.06
2022-10-01T08:05:43.234Z,11.13
2022-10-01T08:08:10.975Z,11.19
2022-10-01T08:10:41.418Z,11.19
2022-10-01T08:13:14.452Z,11.23
2022-10-01T08:15:42.550Z,11.15
2022-10-01T08:18:11.260Z,11.06
2022-10-01T08:20:40.255Z,11.24
2022-10-01T08:23:10.296Z,11.29
2022-10-01T08:25:41.649Z,11.33
2022-10-01T08:28:11.017Z,11.44
2022-10-01T08:30:40.619Z,11.38
2022-10-01T08:33:11.079Z,11.34
2022-10-01T08:35:40.149Z,11.39
2022-10-01T08:38:09.406Z,11.33
2022-10-01T08:40:43.099Z,11.35
2022-10-01T08:43:26.409Z,11.35
2022-10-01T08:45:59.836Z,11.31
2022-10-01T08:48:36.316Z,11.38
2022-10-01T08:51:09.141Z,11.33
2022-10-01T08:53:41.056Z,11.41
2022-10-01T08:56:16.084Z,11.33
2022-10-01T08:58:49.682Z,11.41
2022-10-01T09:01:17.407Z,11.52
2022-10-01T09:03:45.114Z,11.57
2022-10-01T09:06:20.894Z,11.77
2022-10-01T09:09:09.472Z,11.73
2022-10-01T09:11:51.156Z,11.75
2022-10-01T09:14:37.687Z,11.85
2022-10-01T09:17:13.730Z,11.81
2022-10-01T09:19:54.389Z,11.77
2022-10-01T09:22:31.676Z,11.65
2022-10-01T09:25:06.987Z,11.58
2022-10-01T09:27:35.231Z,11.57
2022-10-01T09:30:08.241Z,11.57
2022-10-01T09:32:40.239Z,11.49
2022-10-01T09:35:21.824Z,11.45
2022-10-01T09:37:57.258Z,11.35
2022-10-01T09:40:33.983Z,11.44
2022-10-01T09:43:02.135Z,11.45
2022-10-01T09:45:31.251Z,11.47
2022-10-01T09:48:05.900Z,11.36
2022-10-01T09:50:41.130Z,11.36
2022-10-01T09:53:17.575Z,11.44
2022-10-01T09:55:48.870Z,11.38
2022-10-01T09:58:19.687Z,11.44
2022-10-01T10:00:51.494Z,11.49
2022-10-01T10:03:28.625Z,11.37
2022-10-01T10:05:57.143Z,11.56
2022-10-01T10:08:29.848Z,11.62
2022-10-01T10:11:00.601Z,11.62
2022-10-01T10:13:35.238Z,11.68
2022-10-01T10:16:16.662Z,11.67
2022-10-01T10:18:52.294Z,11.85
2022-10-01T10:21:25.366Z,11.91
2022-10-01T10:23:55.075Z,11.84
2022-10-01T10:26:28.411Z,11.85
2022-10-01T10:28:57.338Z,11.96
2022-10-01T10:31:29.008Z,11.94
2022-10-01T10:34:06.398Z,12.02
2022-10-01T10:36:37.128Z,12.12
2022-10-01T10:39:07.031Z,12.07
2022-10-01T10:41:35.723Z,12.09
2022-10-01T10:44:07.518Z,12.03
2022-10-01T10:46:43.973Z,12.15
2022-10-01T10:49:22.091Z,12.13
2022-10-01T10:51:53.860Z,12.13
2022-10-01T10:54:29.369Z,12.07
2022-10-01T10:57:02.323Z,12.06
2022-10-01T10:59:32.761Z,12.06
2022-10-01T11:02:05.708Z,12.11
2022-10-01T11:04:41.076Z,11.98
2022-10-01T11:07:10.774Z,12.06
2022-10-01T11:09:54.523Z,12.00
2022-10-01T11:12:38.397Z,12.11
2022-10-01T11:15:27.374Z,12.25
2022-10-01T11:18:14.577Z,12.28
2022-10-01T11:20:50.557Z,12.30
2022-10-01T11:23:42.351Z,12.35
2022-10-01T11:26:20.594Z,12.37
2022-10-01T11:29:00.345Z,12.25
2022-10-01T11:31:36.314Z,12.27
2022-10-01T11:34:22.827Z,12.27
2022-10-01T11:36:59.357Z,12.26
2022-10-01T11:39:30.892Z,12.25
2022-10-01T11:42:03.535Z,12.30
2022-10-01T11:44:36.356Z,12.22
2022-10-01T11:47:08.527Z,12.24
2022-10-01T11:49:48.672Z,12.26
2022-10-01T11:52:24.599Z,12.12
2022-10-01T11:55:20.220Z,12.16
2022-10-01T11:58:07.391Z,12.13
2022-10-01T12:00:37.771Z,12.09
2022-10-01T12:03:14.114Z,12.12
2022-10-01T12:05:44.250Z,12.11
2022-10-01T12:08:19.200Z,12.13
2022-10-01T12:10:54.992Z,12.13
2022-10-01T12:13:29.624Z,12.08
2022-10-01T12:16:02.182Z,11.82
2022-10-01T12:18:34.588Z,11.92
2022-10-01T12:21:08.957Z,11.97
2022-10-01T12:23:44.938Z,11.94
2022-10-01T12:26:25.717Z,12.00
2022-10-01T12:29:00.463Z,11.95
2022-10-01T12:31:36.646Z,11.95
2022-10-01T12:34:14.306Z,11.88
2022-10-01T12:36:54.286Z,11.71
2022-10-01T12:39:37.464Z,11.66
2022-10-01T12:42:25.856Z,11.64
2022-10-01T12:45:04.001Z,11.57
2022-10-01T12:47:43.731Z,11.56
2022-10-01T12:50:35.688Z,11.39
2022-10-01T12:53:33.873Z,11.39
2022-10-01T12:56:07.903Z,11.42
2022-10-01T12:59:06.428Z,11.38
2022-10-01T13:01:46.701Z,11.46
2022-10-01T13:04:31.977Z,11.51
2022-10-01T13:07:17.607Z,11.54
2022-10-01T13:09:53.749Z,11.56
2022-10-01T13:12:44.330Z,11.56
2022-10-01T13:15:22.382Z,11.62
2022-10-01T13:17:56.384Z,11.65
2022-10-01T13:20:32.636Z,11.50
2022-10-01T13:23:05.911Z,11.67
2022-10-01T13:25:43.928Z,11.73
2022-10-01T13:28:19.540Z,11.77
2022-10-01T13:30:58.975Z,11.78
2022-10-01T13:33:29.368Z,11.72
2022-10-01T13:35:59.401Z,11.65
2022-10-01T13:38:40.545Z,11.73
2022-10-01T13:41:20.081Z,11.69
2022-10-01T13:43:56.816Z,11.60
2022-10-01T13:46:27.699Z,11.66
2022-10-01T13:48:57.185Z,11.67
2022-10-01T13:51:36.031Z,11.57
2022-10-01T13:54:07.860Z,11.56
2022-10-01T13:56:38.384Z,11.53
2022-10-01T13:59:27.596Z,11.54
2022-10-01T14:01:55.501Z,11.57
2022-10-01T14:04:29.182Z,11.43
2022-10-01T14:07:00.904Z,11.59
2022-10-01T14:09:32.562Z,11.49
2022-10-01T14:12:19.964Z,11.50
2022-10-01T14:15:11.399Z,11.57
2022-10-01T14:17:39.728Z,11.54
2022-10-01T14:20:09.787Z,11.55
2022-10-01T14:22:51.779Z,11.62
2022-10-01T14:25:41.742Z,11.69
2022-10-01T14:28:25.551Z,11.67
2022-10-01T14:30:59.638Z,11.72
2022-10-01T14:33:58.680Z,11.76
2022-10-01T14:36:32.726Z,11.83
2022-10-01T14:39:15.364Z,11.79
2022-10-01T14:41:43.701Z,11.88
2022-10-01T14:44:28.421Z,11.89
2022-10-01T14:46:58.306Z,11.84
2022-10-01T14:49:27.892Z,11.78
2022-10-01T14:52:01.086Z,11.74
2022-10-01T14:54:31.015Z,11.80
2022-10-01T14:56:58.786Z,11.80
2022-10-01T14:59:35.599Z,11.76
2022-10-01T15:02:17.478Z,11.77
2022-10-01T15:04:47.327Z,11.68
2022-10-01T15:07:17.135Z,11.67
2022-10-01T15:09:45.638Z,11.65
2022-10-01T15:12:14.642Z,11.72
2022-10-01T15:14:44.599Z,11.65
2022-10-01T15:17:19.314Z,11.66
2022-10-01T15:19:52.111Z,11.73
2022-10-01T15:22:25.272Z,11.77
2022-10-01T15:24:57.000Z,11.69
2022-10-01T15:27:26.003Z,11.69
2022-10-01T15:29:58.718Z,11.65
2022-10-01T15:32:28.351Z,11.63
2022-10-01T15:34:58.376Z,11.67
2022-10-01T15:37:31.283Z,11.67
2022-10-01T15:40:00.804Z,11.71
2022-10-01T15:42:31.968Z,11.61
2022-10-01T15:45:23.327Z,11.69
2022-10-01T15:47:52.235Z,11.69
2022-10-01T15:50:22.147Z,11.68
2022-10-01T15:52:55.683Z,11.70
2022-10-01T15:55:29.689Z,11.69
2022-10-01T15:58:04.807Z,11.76
2022-10-01T16:00:56.056Z,11.80
2022-10-01T16:03:27.357Z,11.80
2022-10-01T16:05:56.316Z,11.80
2022-10-01T16:08:32.847Z,11.78
2022-10-01T16:11:18.308Z,11.80
2022-10-01T16:13:48.760Z,11.83
2022-10-01T16:16:28.816Z,11.88
2022-10-01T16:19:00.848Z,11.86
2022-10-01T16:21:29.300Z,11.88
2022-10-01T16:23:57.720Z,11.85
2022-10-01T16:26:40.061Z,11.84
2022-10-01T16:29:19.734Z,11.78
2022-10-01T16:31:48.973Z,11.82
2022-10-01T16:34:19.519Z,11.86
2022-10-01T16:36:47.689Z,11.89
2022-10-01T16:39:15.588Z,11.87
2022-10-01T16:41:44.947Z,11.82
2022-10-01T16:44:14.951Z,11.89
2022-10-01T16:46:43.001Z,11.82
2022-10-01T16:49:15.198Z,11.83
2022-10-01T16:51:43.279Z,11.85
2022-10-01T16:54:22.313Z,11.82
2022-10-01T16:56:51.666Z,11.94
2022-10-01T16:59:21.232Z,11.97
2022-10-01T17:01:51.114Z,11.94
2022-10-01T17:04:20.314Z,11.94
2022-10-01T17:06:48.164Z,11.94
2022-10-01T17:09:15.830Z,11.92
2022-10-01T17:11:43.548Z,11.95
2022-10-01T17:14:16.706Z,11.96
2022-10-01T17:16:45.379Z,11.95
2022-10-01T17:19:14.648Z,11.93
2022-10-01T17:21:43.683Z,12.00
2022-10-01T17:24:11.768Z,11.97
2022-10-01T17:26:41.504Z,12.01
2022-10-01T17:29:10.107Z,12.00
2022-10-01T17:31:40.555Z,11.91
2022-10-01T17:34:08.742Z,12.08
2022-10-01T17:36:36.652Z,12.04
2022-10-01T17:39:05.968Z,12.01
2022-10-01T17:41:33.665Z,12.04
2022-10-01T17:44:01.652Z,12.10
2022-10-01T17:46:30.810Z,12.12
2022-10-01T17:48:58.537Z,12.13
2022-10-01T17:51:26.686Z,12.17
2022-10-01T17:53:55.447Z,12.13
2022-10-01T17:56:24.520Z,12.10
2022-10-01T17:58:54.043Z,12.22
2022-10-01T18:01:22.974Z,12.47
2022-10-01T18:03:55.158Z,12.26
2022-10-01T18:06:22.699Z,12.30
2022-10-01T18:08:55.464Z,12.40
2022-10-01T18:11:26.317Z,12.45
2022-10-01T18:13:54.199Z,12.44
2022-10-01T18:16:22.835Z,12.48
2022-10-01T18:21:43.413Z,12.48
2022-10-01T18:24:11.230Z,12.49
2022-10-01T18:26:40.327Z,12.48
2022-10-01T18:29:08.068Z,12.50
2022-10-01T18:31:37.275Z,12.53
2022-10-01T18:34:16.242Z,12.51
2022-10-01T18:36:54.495Z,12.58
2022-10-01T18:39:28.716Z,12.61
2022-10-01T18:41:58.397Z,12.59
2022-10-01T18:44:27.011Z,12.58
2022-10-01T18:47:10.043Z,12.66
2022-10-01T18:50:17.793Z,12.75
2022-10-01T18:52:59.687Z,12.77
2022-10-01T18:55:40.477Z,12.79
2022-10-01T18:58:33.228Z,12.76
2022-10-01T19:01:11.145Z,12.83
2022-10-01T19:04:26.775Z,12.81
2022-10-01T19:07:09.522Z,12.84
2022-10-01T19:09:52.521Z,12.90
2022-10-01T19:12:37.500Z,12.87
2022-10-01T19:15:17.755Z,12.86
2022-10-01T19:18:22.051Z,12.88
2022-10-01T19:21:03.408Z,12.89
2022-10-01T19:23:42.209Z,12.91
2022-10-01T19:26:17.849Z,12.91
2022-10-01T19:28:59.663Z,12.90
2022-10-01T19:31:37.015Z,12.95
2022-10-01T19:34:10.871Z,12.98
2022-10-01T19:36:42.483Z,12.96
2022-10-01T19:39:15.828Z,12.96
2022-10-01T19:41:48.598Z,12.82
2022-10-01T19:44:21.152Z,13.01
2022-10-01T19:46:51.216Z,13.00
2022-10-01T19:49:27.494Z,13.01
2022-10-01T19:51:58.665Z,13.01
2022-10-01T19:54:34.581Z,13.06
2022-10-01T19:57:13.306Z,13.06
2022-10-01T19:59:41.960Z,13.12
2022-10-01T20:02:16.809Z,13.07
2022-10-01T20:04:51.813Z,13.18
2022-10-01T20:07:27.779Z,13.16
2022-10-01T20:10:05.503Z,13.17
2022-10-01T20:12:40.265Z,13.24
2022-10-01T20:15:21.235Z,13.24
2022-10-01T20:18:04.750Z,13.15
2022-10-01T20:20:41.144Z,13.26
2022-10-01T20:23:21.991Z,13.25
2022-10-01T20:25:55.943Z,13.25
2022-10-01T20:28:28.519Z,13.22
2022-10-01T20:31:06.972Z,13.19
2022-10-01T20:33:44.207Z,13.21
2022-10-01T20:36:18.007Z,13.24
2022-10-01T20:38:49.746Z,13.31
2022-10-01T20:41:19.953Z,13.26
2022-10-01T20:43:52.212Z,13.29
2022-10-01T20:46:34.611Z,13.33
2022-10-01T20:49:11.285Z,13.36
2022-10-01T20:51:46.139Z,13.38
2022-10-01T20:54:19.218Z,13.35
2022-10-01T20:56:52.835Z,13.26
2022-10-01T20:59:27.427Z,13.39
2022-10-01T21:02:02.319Z,13.24
2022-10-01T21:04:35.512Z,13.31
2022-10-01T21:07:21.097Z,13.36
2022-10-01T21:09:53.746Z,13.36
2022-10-01T21:12:25.179Z,13.48
2022-10-01T21:14:55.117Z,13.44
2022-10-01T21:17:35.160Z,13.54
2022-10-01T21:20:21.258Z,13.52
2022-10-01T21:23:08.929Z,13.45
2022-10-01T21:25:47.870Z,13.44
2022-10-01T21:28:33.248Z,13.43
2022-10-01T21:31:13.772Z,13.45
2022-10-01T21:33:47.745Z,13.49
2022-10-01T21:36:23.078Z,13.42
2022-10-01T21:38:56.866Z,13.50
2022-10-01T21:41:38.405Z,13.51
2022-10-01T21:44:18.028Z,13.56
2022-10-01T21:46:53.245Z,13.69
2022-10-01T21:49:34.891Z,13.66
2022-10-01T21:52:14.336Z,13.64
2022-10-01T21:55:07.086Z,13.63
2022-10-01T21:57:56.282Z,13.63
2022-10-01T22:00:28.689Z,13.57
2022-10-01T22:03:12.299Z,13.54
2022-10-01T22:05:50.295Z,13.58
2022-10-01T22:08:30.038Z,13.56
2022-10-01T22:11:01.669Z,13.54
2022-10-01T22:13:33.926Z,13.54
2022-10-01T22:16:08.039Z,13.51
2022-10-01T22:18:42.095Z,13.53
2022-10-01T22:21:14.601Z,13.56
2022-10-01T22:23:49.730Z,13.51
2022-10-01T22:26:21.575Z,13.55
2022-10-01T22:28:54.184Z,13.53
2022-10-01T22:31:33.506Z,13.53
2022-10-01T22:34:06.774Z,13.45
2022-10-01T22:36:45.335Z,13.46
2022-10-01T22:39:19.386Z,13.43
2022-10-01T22:41:51.959Z,13.38
2022-10-01T22:44:21.751Z,13.35
2022-10-01T22:47:12.134Z,13.35
2022-10-01T22:49:51.486Z,13.25
2022-10-01T22:52:29.139Z,13.36
2022-10-01T22:55:08.527Z,13.34
2022-10-01T22:57:50.575Z,13.37
2022-10-01T23:00:21.196Z,13.39
2022-10-01T23:02:59.471Z,13.39
2022-10-01T23:05:41.868Z,13.45
2022-10-01T23:08:19.401Z,13.45
2022-10-01T23:11:00.271Z,13.43
2022-10-01T23:13:38.025Z,13.45
2022-10-01T23:16:13.756Z,13.44
2022-10-01T23:18:51.830Z,13.46
2022-10-01T23:21:32.568Z,13.50
2022-10-01T23:24:09.781Z,13.46
2022-10-01T23:26:47.501Z,13.44
2022-10-01T23:29:36.726Z,13.41
2022-10-01T23:32:14.787Z,13.45
2022-10-01T23:34:52.105Z,13.43
2022-10-01T23:37:44.946Z,13.40
2022-10-01T23:40:16.197Z,13.42
2022-10-01T23:42:56.255Z,13.42
2022-10-01T23:45:29.465Z,13.39
2022-10-01T23:48:05.376Z,13.38
2022-10-01T23:50:38.773Z,13.47
2022-10-01T23:53:14.316Z,13.43
2022-10-01T23:56:06.147Z,13.41
2022-10-01T23:58:42.986Z,13.45
